Terminal Aerodrome Forecast
Issued by NWS

Home | Current Version | Previous Version | Text Only | Print | Product List | Glossary On
Versions: 1 2 3 4 5 6 7 8 9 10 11 12 13 14 15 16 17 18 19 20 21 22 23 24
000
FTUS41 KBTV 221722 CCA
TAFRUT
TAF COR
KRUT 221722Z 2218/2318 34010KT P6SM VCSH SCT008 BKN020 OVC035
      TEMPO 2218/2222 6SM -SHRA BR BKN008
     FM230400 36009KT 3SM -RA BR OVC008
     FM231000 01012G20KT 4SM -RA BR OVC008
      AMD LTD TO CLD VIS AND WIND=

USA.gov is the U.S. government's official web portal to all federal, state and local government web resources and services.